Time;durP1;ratioP1;P1;durP2;ratioP2;P2;SDS_P1;SDS_P2;PMS_P1;PMS_P2;Temp;Humidity;BMP_temperature;BMP_pressure;BME280_temperature;BME280_humidity;BME280_pressure;Samples;Min_cycle;Max_cycle;Signal;HPM_P1;HPM_P2
2022/01/02 00:00:28;;;;;;;1.45;1.35;;;18.20;46.50;;;;;;4958577;28;20185;-83
2022/01/02 00:03:06;;;;;;;1.40;1.30;;;18.20;46.30;;;;;;4975208;28;20259;-83
2022/01/02 00:05:41;;;;;;;1.30;1.20;;;18.30;46.30;;;;;;4938684;29;20185;-84
2022/01/02 00:08:17;;;;;;;1.52;1.33;;;18.30;46.40;;;;;;4939372;29;20551;-84
2022/01/02 00:10:49;;;;;;;1.42;1.23;;;18.30;46.40;;;;;;4967694;28;20254;-84
2022/01/02 00:13:31;;;;;;;1.40;1.30;;;18.20;46.40;;;;;;4974801;28;20187;-84
2022/01/02 00:16:04;;;;;;;1.25;1.10;;;18.30;46.50;;;;;;4943963;28;20192;-84
2022/01/02 00:18:48;;;;;;;1.30;1.20;;;18.20;47.10;;;;;;4974148;28;20193;-83
2022/01/02 00:21:13;;;;;;;1.10;1.00;;;18.20;46.40;;;;;;4954248;29;20560;-84
2022/01/02 00:26:40;;;;;;;1.23;1.02;;;18.20;46.40;;;;;;4954806;29;20184;-84
2022/01/02 00:29:06;;;;;;;1.25;1.15;;;18.20;46.50;;;;;;4948004;29;20177;-84
2022/01/02 00:31:35;;;;;;;1.23;1.13;;;18.20;46.40;;;;;;4916684;29;20682;-83
2022/01/02 00:34:03;;;;;;;1.20;1.10;;;18.20;46.50;;;;;;4916685;29;20289;-84
2022/01/02 00:36:30;;;;;;;1.25;1.15;;;18.20;46.40;;;;;;4925765;29;20189;-83
2022/01/02 00:39:07;;;;;;;1.30;1.20;;;18.20;46.50;;;;;;4951560;29;20162;-83
2022/01/02 00:41:57;;;;;;;1.15;1.08;;;18.10;46.50;;;;;;4928582;29;20184;-85
2022/01/02 00:44:48;;;;;;;1.33;1.20;;;18.20;46.60;;;;;;4949681;29;20276;-84
2022/01/02 00:47:25;;;;;;;1.30;1.20;;;18.10;46.50;;;;;;4948357;29;20190;-84
2022/01/02 00:50:04;;;;;;;1.50;1.40;;;18.20;46.60;;;;;;4938509;29;20208;-84
2022/01/02 00:52:31;;;;;;;1.83;1.40;;;18.10;46.60;;;;;;4959254;28;20294;-82
2022/01/02 00:54:57;;;;;;;1.20;1.10;;;18.20;46.70;;;;;;4957726;28;20299;-83
2022/01/02 00:57:39;;;;;;;1.33;1.23;;;18.20;46.60;;;;;;4941419;28;20324;-84
2022/01/02 01:00:20;;;;;;;1.60;1.30;;;18.10;46.70;;;;;;4942847;28;20187;-84
2022/01/02 01:02:53;;;;;;;1.15;1.05;;;18.10;46.50;;;;;;4972154;28;20310;-83
2022/01/02 01:05:29;;;;;;;1.63;1.52;;;18.10;46.70;;;;;;4941846;28;20222;-85
2022/01/02 01:08:05;;;;;;;1.38;1.20;;;18.10;46.70;;;;;;4973458;28;20227;-83
2022/01/02 01:10:38;;;;;;;1.17;1.10;;;18.10;46.70;;;;;;4973906;28;20180;-83
2022/01/02 01:13:10;;;;;;;1.25;1.15;;;18.10;46.70;;;;;;4973128;28;20513;-84
2022/01/02 01:15:42;;;;;;;1.50;1.40;;;18.10;46.70;;;;;;4986532;28;20282;-84
2022/01/02 01:18:12;;;;;;;1.30;1.20;;;18.10;46.80;;;;;;4993087;28;20176;-83
2022/01/02 01:20:42;;;;;;;1.42;1.30;;;18.10;46.70;;;;;;4992724;28;20184;-83
2022/01/02 01:23:15;;;;;;;1.23;1.10;;;18.10;46.70;;;;;;4945456;28;20648;-85
2022/01/02 01:25:46;;;;;;;1.58;1.40;;;18.10;46.60;;;;;;4992613;28;20184;-83
2022/01/02 01:28:20;;;;;;;1.48;1.30;;;18.10;46.70;;;;;;4975108;28;20228;-85
2022/01/02 01:30:48;;;;;;;1.42;1.33;;;18.10;46.60;;;;;;4988756;28;20658;-85
2022/01/02 01:33:21;;;;;;;1.50;1.40;;;18.10;46.70;;;;;;4973072;28;20192;-84
2022/01/02 01:35:49;;;;;;;1.30;1.20;;;18.10;46.70;;;;;;4995771;28;20220;-84
2022/01/02 01:38:20;;;;;;;1.25;1.15;;;18.10;46.70;;;;;;5009474;28;20184;-84
2022/01/02 01:40:57;;;;;;;1.52;1.38;;;18.10;46.80;;;;;;4989122;28;20180;-84
2022/01/02 01:46:17;;;;;;;1.60;1.48;;;18.00;46.80;;;;;;4973040;28;20172;-84
2022/01/02 01:48:55;;;;;;;1.33;1.23;;;18.00;46.70;;;;;;4973385;28;20223;-83
2022/01/02 01:51:29;;;;;;;1.50;1.30;;;18.00;46.80;;;;;;4927206;29;20177;-83
2022/01/02 01:54:06;;;;;;;1.42;1.30;;;18.00;46.70;;;;;;4930512;29;20216;-83
2022/01/02 01:56:42;;;;;;;1.20;1.10;;;18.00;46.80;;;;;;4972962;28;20568;-83
2022/01/02 01:59:23;;;;;;;1.20;1.10;;;18.00;46.70;;;;;;4977373;28;20217;-84
2022/01/02 02:01:50;;;;;;;1.38;1.27;;;18.00;46.70;;;;;;4942089;29;20308;-83
2022/01/02 02:04:18;;;;;;;1.40;1.30;;;18.10;46.70;;;;;;4958994;29;20277;-83
2022/01/02 02:06:54;;;;;;;1.52;1.40;;;18.00;46.80;;;;;;4923777;29;20238;-84
2022/01/02 02:09:36;;;;;;;1.50;1.20;;;18.00;46.80;;;;;;4941436;29;20210;-83
2022/01/02 02:12:08;;;;;;;1.30;1.20;;;18.00;46.70;;;;;;4939719;29;20197;-83
2022/01/02 02:14:34;;;;;;;1.02;1.02;;;18.00;46.90;;;;;;4962046;28;20210;-83
2022/01/02 02:17:05;;;;;;;1.20;1.10;;;18.00;46.80;;;;;;4924215;29;20657;-85
2022/01/02 02:19:31;;;;;;;1.30;1.20;;;17.90;46.80;;;;;;4924730;29;20274;-84
2022/01/02 02:21:59;;;;;;;1.60;1.30;;;18.00;46.80;;;;;;4924830;29;20211;-83
2022/01/02 02:24:29;;;;;;;1.80;1.40;;;18.00;46.80;;;;;;4923600;29;20191;-83
2022/01/02 02:26:54;;;;;;;1.60;1.48;;;17.90;46.80;;;;;;4923649;29;20187;-84
2022/01/02 02:29:25;;;;;;;1.30;1.20;;;18.00;46.90;;;;;;4920396;29;20195;-84
2022/01/02 02:31:56;;;;;;;1.30;1.20;;;17.90;46.80;;;;;;4926032;29;20743;-83
2022/01/02 02:34:23;;;;;;;1.40;1.30;;;18.00;46.90;;;;;;4937444;28;20687;-84
2022/01/02 02:36:51;;;;;;;1.25;1.10;;;17.90;46.70;;;;;;5004263;28;20181;-83
2022/01/02 02:39:32;;;;;;;1.30;1.20;;;18.00;46.70;;;;;;5020947;28;20658;-83
2022/01/02 02:42:15;;;;;;;1.35;1.25;;;18.00;46.90;;;;;;5021450;28;20187;-84
2022/01/02 02:44:40;;;;;;;1.33;1.23;;;18.00;46.90;;;;;;4999335;28;20236;-84
2022/01/02 02:49:51;;;;;;;1.33;1.20;;;17.90;46.60;;;;;;5024404;28;20226;-83
2022/01/02 02:52:39;;;;;;;1.23;1.13;;;18.00;46.80;;;;;;5020333;28;20223;-84
2022/01/02 02:55:07;;;;;;;1.10;1.00;;;18.00;46.80;;;;;;5037116;28;20685;-83
2022/01/02 02:57:39;;;;;;;1.88;1.50;;;18.00;46.70;;;;;;5023853;28;20183;-83
2022/01/02 03:00:09;;;;;;;1.25;1.15;;;18.00;46.70;;;;;;5019794;28;20207;-84
2022/01/02 03:02:35;;;;;;;1.23;1.10;;;18.00;46.80;;;;;;4984635;28;20208;-83
2022/01/02 03:05:07;;;;;;;1.30;1.20;;;18.00;46.80;;;;;;4969696;28;20205;-85
2022/01/02 03:07:39;;;;;;;1.52;1.30;;;17.90;46.90;;;;;;4961324;29;20192;-83
2022/01/02 03:10:10;;;;;;;1.55;1.33;;;17.90;47.50;;;;;;4945842;29;20258;-84
2022/01/02 03:12:44;;;;;;;1.30;1.20;;;17.80;46.80;;;;;;4960354;29;20190;-85
2022/01/02 03:15:13;;;;;;;1.27;1.17;;;17.90;46.80;;;;;;4945663;29;20213;-84
2022/01/02 03:17:43;;;;;;;1.27;1.17;;;18.00;46.80;;;;;;4951482;29;20205;-83
2022/01/02 03:20:09;;;;;;;1.40;1.30;;;17.90;46.80;;;;;;4964013;28;20181;-84
2022/01/02 03:22:34;;;;;;;0.88;0.88;;;17.90;46.90;;;;;;4964601;29;20192;-83
2022/01/02 03:25:06;;;;;;;1.50;1.30;;;17.90;46.90;;;;;;4965431;29;20192;-84
2022/01/02 03:27:46;;;;;;;1.25;1.15;;;17.90;46.90;;;;;;4925888;29;20608;-85
2022/01/02 03:30:16;;;;;;;1.50;1.40;;;17.90;46.70;;;;;;4913117;29;20194;-83
2022/01/02 03:32:47;;;;;;;1.33;1.23;;;17.90;46.80;;;;;;4929220;29;20276;-84
2022/01/02 03:35:21;;;;;;;1.48;1.30;;;18.00;46.90;;;;;;4926138;29;20209;-83
2022/01/02 03:37:54;;;;;;;1.40;1.30;;;18.00;47.00;;;;;;4932952;29;20182;-84
2022/01/02 03:40:35;;;;;;;1.30;1.15;;;17.90;46.90;;;;;;4932239;29;20185;-84
2022/01/02 03:43:03;;;;;;;1.33;1.23;;;17.90;46.90;;;;;;4928365;29;20181;-83
2022/01/02 03:45:35;;;;;;;1.40;1.30;;;17.90;46.90;;;;;;4929976;29;20189;-84
2022/01/02 03:48:07;;;;;;;1.50;1.40;;;17.80;46.90;;;;;;4944022;29;20186;-84
2022/01/02 03:50:35;;;;;;;0.95;0.90;;;17.80;46.90;;;;;;4938727;28;20679;-84
2022/01/02 03:53:04;;;;;;;1.27;1.17;;;17.90;46.90;;;;;;4992709;28;20576;-84
2022/01/02 03:55:29;;;;;;;1.40;1.30;;;17.80;46.90;;;;;;5006238;28;20215;-82
2022/01/02 03:58:07;;;;;;;1.20;1.10;;;17.90;46.90;;;;;;5033192;28;20260;-84
2022/01/02 04:00:38;;;;;;;1.27;1.17;;;17.90;46.90;;;;;;5042181;28;20270;-83
2022/01/02 04:03:06;;;;;;;1.08;0.98;;;17.80;47.00;;;;;;5042265;28;20183;-83
2022/01/02 04:05:42;;;;;;;1.58;1.30;;;17.80;47.00;;;;;;5041885;28;20180;-84
2022/01/02 04:08:08;;;;;;;1.55;1.38;;;17.80;47.00;;;;;;5103262;28;20546;-83
2022/01/02 04:10:49;;;;;;;1.50;1.38;;;17.80;47.00;;;;;;5086108;28;20185;-83
2022/01/02 04:13:21;;;;;;;1.25;1.15;;;17.80;47.10;;;;;;5103505;28;20199;-85
2022/01/02 04:15:50;;;;;;;1.35;1.25;;;17.80;46.90;;;;;;5085593;28;20271;-83
2022/01/02 04:18:18;;;;;;;1.23;1.13;;;17.80;47.00;;;;;;5102526;28;20705;-83
2022/01/02 04:20:52;;;;;;;1.52;1.42;;;17.80;46.90;;;;;;5103102;28;20193;-84
2022/01/02 04:23:20;;;;;;;1.08;1.02;;;17.80;47.00;;;;;;5086089;28;20176;-84
2022/01/02 04:25:48;;;;;;;0.98;0.90;;;17.80;47.00;;;;;;5102939;28;20192;-84
2022/01/02 04:28:19;;;;;;;1.23;1.13;;;17.80;47.00;;;;;;5102438;28;20188;-83
2022/01/02 04:30:49;;;;;;;1.20;1.08;;;17.80;47.10;;;;;;5105399;28;20190;-84
2022/01/02 04:33:17;;;;;;;1.48;1.38;;;17.70;47.00;;;;;;5123096;28;20190;-84
2022/01/02 04:35:46;;;;;;;1.50;1.30;;;17.80;47.00;;;;;;5106607;28;20662;-83
2022/01/02 04:38:15;;;;;;;1.33;1.23;;;17.80;47.10;;;;;;5089785;28;20190;-83
2022/01/02 04:40:44;;;;;;;1.23;1.13;;;17.80;47.10;;;;;;5105221;28;20188;-83
2022/01/02 04:43:28;;;;;;;1.55;1.10;;;17.80;47.10;;;;;;5072042;28;20321;-84
2022/01/02 04:45:53;;;;;;;1.30;1.20;;;17.80;47.00;;;;;;5105632;28;20183;-85
2022/01/02 04:48:20;;;;;;;1.30;1.20;;;17.80;47.10;;;;;;5088935;28;20167;-84
2022/01/02 04:50:50;;;;;;;1.40;1.30;;;17.80;47.10;;;;;;5105805;28;20164;-83
2022/01/02 04:53:20;;;;;;;1.20;1.10;;;17.80;47.10;;;;;;5122627;28;20224;-82
2022/01/02 04:55:46;;;;;;;1.23;1.13;;;17.80;47.20;;;;;;5081945;28;20309;-84
2022/01/02 04:58:11;;;;;;;1.30;1.10;;;17.80;47.20;;;;;;5081629;28;20236;-83
2022/01/02 05:00:39;;;;;;;1.40;1.30;;;17.70;47.20;;;;;;5065745;28;20216;-83
2022/01/02 05:03:07;;;;;;;1.40;1.30;;;17.80;47.20;;;;;;5081695;28;20162;-84
2022/01/02 05:05:34;;;;;;;1.30;1.20;;;17.70;47.10;;;;;;5064800;28;20181;-83
2022/01/02 05:49:11;;;;;;;1.25;1.15;;;17.70;47.10;;;;;;5120066;28;20219;-83
2022/01/02 05:51:43;;;;;;;1.00;0.95;;;17.70;47.20;;;;;;5054766;28;20200;-83
2022/01/02 05:54:14;;;;;;;1.15;1.05;;;17.70;47.30;;;;;;5047075;28;20209;-84
2022/01/02 05:56:42;;;;;;;1.40;1.30;;;17.60;47.20;;;;;;5047333;28;20184;-84
2022/01/02 05:59:08;;;;;;;1.25;1.15;;;17.70;47.30;;;;;;5063970;28;20158;-84
2022/01/02 06:01:39;;;;;;;1.50;1.40;;;17.60;47.20;;;;;;5064153;28;20212;-84
2022/01/02 06:04:06;;;;;;;1.58;1.30;;;17.60;47.20;;;;;;5063894;28;20161;-82
2022/01/02 06:06:52;;;;;;;1.10;1.00;;;17.70;47.20;;;;;;5030875;28;20185;-81
2022/01/02 06:09:27;;;;;;;1.25;1.15;;;17.70;47.20;;;;;;5051696;28;20211;-82
2022/01/02 06:11:53;;;;;;;1.45;1.35;;;17.70;47.20;;;;;;5030716;28;20181;-84
2022/01/02 06:14:24;;;;;;;1.30;1.20;;;17.70;47.20;;;;;;5033855;28;20193;-83
2022/01/02 06:16:52;;;;;;;1.40;1.30;;;17.70;47.10;;;;;;5041814;28;20190;-83
2022/01/02 06:19:25;;;;;;;1.30;1.20;;;17.70;47.10;;;;;;5059446;28;20158;-83
2022/01/02 06:21:57;;;;;;;1.20;1.10;;;17.70;47.20;;;;;;5070664;28;20267;-83
2022/01/02 06:24:36;;;;;;;1.20;1.10;;;17.70;47.00;;;;;;5111786;28;20725;-82
2022/01/02 06:27:02;;;;;;;1.13;1.02;;;17.70;47.20;;;;;;5100554;28;20227;-82
2022/01/02 06:29:33;;;;;;;1.00;0.93;;;17.70;47.20;;;;;;5086243;28;20180;-81
2022/01/02 06:32:09;;;;;;;1.50;1.40;;;17.70;47.10;;;;;;5098449;28;20290;-83
2022/01/02 06:34:56;;;;;;;1.30;1.20;;;17.70;47.10;;;;;;5080887;28;20282;-82
2022/01/02 06:37:25;;;;;;;1.48;1.35;;;17.60;47.10;;;;;;5079605;28;20189;-83
2022/01/02 06:39:51;;;;;;;1.60;1.23;;;17.70;47.20;;;;;;5081267;28;20221;-82
2022/01/02 06:42:21;;;;;;;1.20;1.10;;;17.70;47.20;;;;;;5097475;28;20180;-82
2022/01/02 06:45:01;;;;;;;1.00;0.90;;;17.70;47.20;;;;;;5080786;28;20276;-82
2022/01/02 06:47:36;;;;;;;1.27;1.17;;;17.70;47.20;;;;;;5082619;28;20180;-83
2022/01/02 06:50:02;;;;;;;1.20;1.10;;;17.70;47.20;;;;;;5094609;28;20180;-81
2022/01/02 06:52:27;;;;;;;1.45;1.35;;;17.70;47.20;;;;;;5068936;28;20219;-81
2022/01/02 06:54:53;;;;;;;1.20;1.10;;;17.70;47.30;;;;;;5114484;28;20286;-81
2022/01/02 06:57:22;;;;;;;1.35;1.00;;;17.70;47.30;;;;;;5112323;28;20168;-82
2022/01/02 06:59:58;;;;;;;1.45;1.10;;;17.70;47.30;;;;;;5097194;28;20177;-82
2022/01/02 07:02:24;;;;;;;1.15;1.05;;;17.60;47.30;;;;;;5098372;28;20183;-83
2022/01/02 07:04:49;;;;;;;1.20;1.10;;;17.70;47.20;;;;;;5080674;28;20547;-82
2022/01/02 07:07:15;;;;;;;1.23;1.13;;;17.60;47.20;;;;;;5080815;28;20185;-82
2022/01/02 07:09:46;;;;;;;1.20;1.10;;;17.60;47.20;;;;;;5081113;28;20673;-81
2022/01/02 07:12:20;;;;;;;1.40;1.30;;;17.70;47.10;;;;;;5057135;28;20190;-82
2022/01/02 07:14:48;;;;;;;1.00;1.00;;;17.70;47.20;;;;;;5057061;28;20739;-82
2022/01/02 07:17:19;;;;;;;1.40;1.30;;;17.70;47.20;;;;;;5057583;28;20261;-82
2022/01/02 07:19:47;;;;;;;1.08;0.98;;;17.70;46.90;;;;;;5058970;28;20178;-83
2022/01/02 07:22:21;;;;;;;1.20;1.10;;;17.70;46.80;;;;;;5061919;28;20788;-82
2022/01/02 07:24:54;;;;;;;1.05;0.90;;;17.80;46.60;;;;;;5043956;28;20192;-83
2022/01/02 07:27:21;;;;;;;1.33;1.23;;;17.80;46.50;;;;;;5042719;28;20208;-82
2022/01/02 07:30:01;;;;;;;2.05;1.10;;;17.90;46.50;;;;;;5044633;28;20212;-81
2022/01/02 07:32:27;;;;;;;1.10;1.00;;;17.90;46.40;;;;;;5045937;28;20647;-82
2022/01/02 07:34:53;;;;;;;1.20;1.10;;;18.00;46.40;;;;;;5041304;28;20206;-81
2022/01/02 07:37:18;;;;;;;1.13;1.02;;;18.00;46.30;;;;;;5026325;28;20204;-81
2022/01/02 07:39:44;;;;;;;0.88;0.80;;;18.00;46.20;;;;;;5061750;28;20615;-82
2022/01/02 07:42:21;;;;;;;1.35;1.25;;;18.00;46.10;;;;;;5043619;28;20240;-82
2022/01/02 07:44:53;;;;;;;1.15;1.05;;;18.10;46.00;;;;;;4980656;28;20689;-83
2022/01/02 07:47:44;;;;;;;1.35;1.25;;;18.20;46.00;;;;;;4997900;28;20310;-81
2022/01/02 07:50:12;;;;;;;1.20;1.10;;;18.20;45.90;;;;;;4997273;28;20184;-82
2022/01/02 07:52:53;;;;;;;1.30;1.20;;;18.20;45.90;;;;;;4988378;28;20228;-82
2022/01/02 07:55:34;;;;;;;1.17;1.08;;;18.20;45.90;;;;;;4980407;28;20741;-80
2022/01/02 07:58:06;;;;;;;1.27;1.17;;;18.20;45.90;;;;;;4996827;28;20277;-81
2022/01/02 08:00:32;;;;;;;1.00;1.00;;;18.20;45.90;;;;;;4980515;28;20195;-82
2022/01/02 08:03:01;;;;;;;1.13;1.02;;;18.30;45.70;;;;;;4993803;28;20279;-83
2022/01/02 08:05:31;;;;;;;4.22;1.20;;;18.30;45.70;;;;;;4980778;28;20228;-80
2022/01/02 08:08:11;;;;;;;1.08;0.98;;;18.30;45.50;;;;;;5001881;28;20264;-82
2022/01/02 08:10:52;;;;;;;1.10;1.00;;;18.30;45.70;;;;;;5021811;28;20183;-82
2022/01/02 08:13:34;;;;;;;1.25;1.10;;;18.40;45.80;;;;;;5011306;28;20179;-82
2022/01/02 08:16:18;;;;;;;0.80;0.80;;;18.40;45.70;;;;;;5051527;28;20206;-81
2022/01/02 08:18:51;;;;;;;1.27;1.00;;;18.40;45.70;;;;;;5060779;28;20253;-82
2022/01/02 08:21:24;;;;;;;6.75;1.23;;;18.50;45.60;;;;;;5061057;28;20174;-84
2022/01/02 08:23:49;;;;;;;1.20;1.05;;;18.50;45.60;;;;;;5061418;28;20316;-81
2022/01/02 08:26:32;;;;;;;1.25;1.00;;;18.50;45.60;;;;;;5070050;28;20806;-83
2022/01/02 08:29:02;;;;;;;1.20;0.88;;;18.60;45.60;;;;;;5005092;28;20183;-82
2022/01/02 08:31:35;;;;;;;0.90;0.90;;;18.60;45.50;;;;;;5005082;28;20187;-83
2022/01/02 08:34:09;;;;;;;1.02;0.93;;;18.50;45.40;;;;;;4959463;28;20197;-82
2022/01/02 08:36:55;;;;;;;1.15;0.93;;;18.60;45.30;;;;;;4964250;28;20207;-82
2022/01/02 08:39:48;;;;;;;2.35;0.80;;;18.60;45.30;;;;;;4940851;29;20190;-83
2022/01/02 08:42:25;;;;;;;1.27;1.15;;;18.60;45.30;;;;;;4944334;28;20190;-82
2022/01/02 08:44:53;;;;;;;1.00;0.90;;;18.60;45.30;;;;;;4940750;29;20193;-82
2022/01/02 08:47:24;;;;;;;1.30;1.20;;;18.60;45.30;;;;;;4947433;29;20204;-82
2022/01/02 08:49:50;;;;;;;1.10;1.00;;;18.60;45.20;;;;;;4948263;29;20185;-81
2022/01/02 08:52:15;;;;;;;1.45;1.10;;;18.60;45.20;;;;;;4959910;28;20315;-81
2022/01/02 08:54:50;;;;;;;1.90;1.02;;;18.70;45.20;;;;;;4966274;28;20224;-81
2022/01/02 08:57:16;;;;;;;1.42;1.00;;;18.70;45.10;;;;;;4967068;28;20207;-84
2022/01/02 09:00:09;;;;;;;1.98;1.10;;;18.70;45.10;;;;;;4964615;28;20215;-82
2022/01/02 09:02:34;;;;;;;2.55;1.13;;;18.70;45.10;;;;;;4975040;28;20196;-83
2022/01/02 09:05:09;;;;;;;2.05;0.95;;;18.80;45.20;;;;;;4986037;28;20183;-82
2022/01/02 09:08:00;;;;;;;1.23;0.85;;;18.70;45.20;;;;;;4998102;28;20199;-83
2022/01/02 09:10:48;;;;;;;2.85;0.93;;;18.80;45.20;;;;;;4952957;28;20188;-82
2022/01/02 09:13:26;;;;;;;1.20;1.10;;;18.80;45.30;;;;;;4921572;29;20302;-82
2022/01/02 09:15:55;;;;;;;2.25;1.05;;;18.90;45.30;;;;;;4941797;29;20317;-83
2022/01/02 09:18:23;;;;;;;2.95;1.10;;;18.80;45.20;;;;;;4961311;28;20189;-83
2022/01/02 09:20:55;;;;;;;1.25;1.08;;;18.80;45.30;;;;;;4977319;28;20621;-82
2022/01/02 09:23:27;;;;;;;3.63;1.25;;;18.90;45.70;;;;;;4977772;28;20214;-81
2022/01/02 09:25:57;;;;;;;1.08;1.02;;;18.80;45.60;;;;;;4977686;28;20189;-84
2022/01/02 09:28:26;;;;;;;3.08;1.00;;;18.90;45.60;;;;;;4979112;28;20237;-82
2022/01/02 09:30:54;;;;;;;4.97;1.20;;;18.90;45.50;;;;;;4979766;28;20284;-82
2022/01/02 09:33:26;;;;;;;4.03;1.08;;;18.90;45.50;;;;;;4989360;28;20184;-81
2022/01/02 09:35:55;;;;;;;3.05;1.20;;;18.90;45.70;;;;;;5013552;28;20297;-83
2022/01/02 09:38:33;;;;;;;4.07;1.10;;;18.90;45.50;;;;;;5043886;28;20177;-82
2022/01/02 09:41:11;;;;;;;2.72;1.15;;;19.00;45.60;;;;;;5043225;28;20251;-82
2022/01/02 09:43:49;;;;;;;2.53;1.20;;;19.00;45.30;;;;;;5021709;28;20179;-82
2022/01/02 09:46:24;;;;;;;3.63;1.17;;;19.00;45.20;;;;;;5001709;28;20188;-82
2022/01/02 09:48:58;;;;;;;4.00;1.27;;;19.00;45.30;;;;;;4985443;28;20187;-82
2022/01/02 09:51:28;;;;;;;7.32;1.40;;;19.00;45.10;;;;;;4985695;28;20271;-83
2022/01/02 09:53:59;;;;;;;5.20;1.20;;;19.10;45.20;;;;;;5003910;28;20187;-84
2022/01/02 09:56:51;;;;;;;4.38;1.40;;;19.00;45.20;;;;;;4972857;28;20187;-82
2022/01/02 09:59:24;;;;;;;3.85;1.10;;;19.00;45.10;;;;;;5008762;28;20179;-82
2022/01/02 10:02:08;;;;;;;5.68;1.38;;;19.10;45.30;;;;;;5007635;28;20258;-83
2022/01/02 10:04:40;;;;;;;6.72;1.30;;;19.10;45.30;;;;;;4966006;28;20191;-82
2022/01/02 10:07:30;;;;;;;5.47;1.15;;;19.10;45.50;;;;;;4967722;28;20209;-81
2022/01/02 10:09:56;;;;;;;6.55;1.38;;;19.10;45.50;;;;;;4921161;28;20189;-81
2022/01/02 10:12:28;;;;;;;8.52;1.30;;;19.10;45.50;;;;;;4949864;28;20195;-79
2022/01/02 10:15:08;;;;;;;5.57;1.40;;;19.10;45.70;;;;;;4943374;28;20302;-82
2022/01/02 10:18:13;;;;;;;10.77;1.38;;;19.10;46.00;;;;;;5023024;28;20189;-81
2022/01/02 10:20:47;;;;;;;8.63;1.42;;;19.10;45.70;;;;;;5019112;28;20254;-82
2022/01/02 10:23:22;;;;;;;7.63;1.23;;;19.20;45.80;;;;;;5016285;28;20183;-82
2022/01/02 10:25:55;;;;;;;15.98;2.08;;;19.20;45.70;;;;;;4982319;28;20254;-83
2022/01/02 10:28:35;;;;;;;26.35;2.17;;;19.20;45.80;;;;;;4982708;28;20192;-81
2022/01/02 10:31:09;;;;;;;11.23;1.90;;;19.20;46.00;;;;;;4970258;28;20188;-82
2022/01/02 10:33:59;;;;;;;15.38;2.33;;;19.20;46.00;;;;;;4987702;28;20201;-82
2022/01/02 10:36:37;;;;;;;20.08;2.17;;;19.20;46.20;;;;;;4980633;28;20189;-79
2022/01/02 10:39:12;;;;;;;25.02;2.45;;;19.20;46.10;;;;;;4985971;28;20259;-81
2022/01/02 10:41:54;;;;;;;17.23;2.00;;;19.20;46.20;;;;;;4916673;29;20186;-81
2022/01/02 10:44:34;;;;;;;23.58;2.10;;;19.20;46.30;;;;;;4895169;29;20282;-84
2022/01/02 10:47:25;;;;;;;17.88;2.30;;;19.20;46.40;;;;;;4893969;29;20657;-80
2022/01/02 10:49:59;;;;;;;13.02;1.73;;;19.20;46.40;;;;;;4893929;29;20626;-82
2022/01/02 10:52:30;;;;;;;15.40;1.90;;;19.20;46.40;;;;;;4860859;29;20276;-81
2022/01/02 10:55:22;;;;;;;18.30;2.00;;;19.20;46.60;;;;;;4869610;29;20245;-81
2022/01/02 10:58:00;;;;;;;16.00;1.95;;;19.20;46.70;;;;;;4840260;29;20189;-81
2022/01/02 11:00:58;;;;;;;20.05;2.28;;;19.30;46.80;;;;;;4871319;29;20553;-81
2022/01/02 11:03:25;;;;;;;14.13;2.65;;;19.30;47.00;;;;;;4873311;29;20698;-82
2022/01/02 11:06:00;;;;;;;12.93;2.33;;;19.20;47.00;;;;;;4871476;29;20244;-83
2022/01/02 11:08:43;;;;;;;12.07;1.90;;;19.20;47.20;;;;;;4818178;29;20215;-83
2022/01/02 11:11:12;;;;;;;21.35;2.05;;;19.20;47.20;;;;;;4833807;29;20667;-82
2022/01/02 11:14:01;;;;;;;17.88;2.30;;;19.20;47.40;;;;;;4834040;29;20193;-81
2022/01/02 11:16:30;;;;;;;16.92;2.20;;;19.30;47.50;;;;;;4884467;29;20310;-82
2022/01/02 11:18:56;;;;;;;7.68;1.90;;;19.40;47.90;;;;;;4887500;29;20228;-80
2022/01/02 11:21:30;;;;;;;12.48;1.77;;;19.30;47.60;;;;;;4887839;29;20236;-81
2022/01/02 11:24:23;;;;;;;17.48;2.00;;;19.40;47.50;;;;;;4875244;29;20696;-80
2022/01/02 11:30:37;;;;;;;10.80;2.05;;;19.40;47.80;;;;;;4926086;29;20183;-81
2022/01/02 11:33:19;;;;;;;11.20;1.80;;;19.40;47.60;;;;;;4912841;29;20193;-81
2022/01/02 11:35:56;;;;;;;10.60;2.13;;;19.40;47.30;;;;;;4924402;29;20215;-79
2022/01/02 11:38:22;;;;;;;13.07;2.42;;;19.40;47.20;;;;;;4907877;29;20175;-80
2022/01/02 11:41:01;;;;;;;11.40;1.75;;;19.40;47.30;;;;;;4911520;29;20182;-79
2022/01/02 11:43:55;;;;;;;9.07;1.95;;;19.40;47.30;;;;;;4888622;29;20245;-80
2022/01/02 11:46:42;;;;;;;13.95;1.77;;;19.40;47.00;;;;;;4871229;29;20213;-81
2022/01/02 11:49:18;;;;;;;19.83;2.30;;;19.40;47.10;;;;;;4836867;29;20181;-80
2022/01/02 11:51:57;;;;;;;11.40;1.75;;;19.50;47.30;;;;;;4833812;29;20743;-80
2022/01/02 11:55:00;;;;;;;10.68;2.28;;;19.50;46.90;;;;;;4830708;29;20293;-81
2022/01/02 11:57:44;;;;;;;13.90;2.08;;;19.50;47.20;;;;;;4835246;29;20191;-80
2022/01/02 12:00:43;;;;;;;9.65;2.10;;;19.40;46.90;;;;;;4845294;29;20190;-80
2022/01/02 12:03:49;;;;;;;12.40;2.08;;;19.50;47.10;;;;;;4850944;29;20189;-81
2022/01/02 12:06:33;;;;;;;16.00;2.10;;;19.40;47.20;;;;;;4824986;29;20194;-84
2022/01/02 12:09:04;;;;;;;14.25;2.28;;;19.50;47.60;;;;;;4827920;29;20190;-82
2022/01/02 12:11:44;;;;;;;14.00;2.40;;;19.40;47.50;;;;;;4831890;29;20230;-82
2022/01/02 12:14:22;;;;;;;18.05;2.20;;;19.40;48.10;;;;;;4819262;29;20251;-82
2022/01/02 12:17:11;;;;;;;10.70;2.13;;;19.50;48.30;;;;;;4800493;29;20190;-82
2022/01/02 12:20:04;;;;;;;22.27;2.60;;;19.50;48.30;;;;;;4834683;29;20194;-84
2022/01/02 12:23:05;;;;;;;17.95;1.80;;;19.50;48.00;;;;;;4828468;29;20193;-82
2022/01/02 12:25:34;;;;;;;13.80;1.90;;;19.50;48.20;;;;;;4867501;29;20195;-83
2022/01/02 12:28:06;;;;;;;21.10;2.50;;;19.40;48.10;;;;;;4883445;29;20193;-83
2022/01/02 12:30:40;;;;;;;19.73;2.40;;;19.40;48.10;;;;;;4869692;29;20208;-81
2022/01/02 12:33:06;;;;;;;18.70;2.40;;;19.40;48.10;;;;;;4868729;29;20279;-81
2022/01/02 12:35:39;;;;;;;21.48;2.80;;;19.40;48.10;;;;;;4867718;29;20243;-82
2022/01/02 12:38:06;;;;;;;23.55;3.10;;;19.50;48.20;;;;;;4898873;29;20244;-82
2022/01/02 12:40:39;;;;;;;30.15;2.72;;;19.50;48.30;;;;;;4883089;29;20193;-81
2022/01/02 12:43:09;;;;;;;18.95;2.70;;;19.50;48.40;;;;;;4868320;29;20203;-81
2022/01/02 12:45:36;;;;;;;25.90;2.65;;;19.40;48.30;;;;;;4856526;29;20619;-82
2022/01/02 12:48:22;;;;;;;24.63;2.67;;;19.50;48.30;;;;;;4899223;29;20187;-81
2022/01/02 12:50:51;;;;;;;18.73;2.35;;;19.50;48.50;;;;;;4894888;29;20202;-80
2022/01/02 12:53:26;;;;;;;19.13;2.67;;;19.50;48.40;;;;;;4908032;29;20230;-82
2022/01/02 12:55:59;;;;;;;18.58;2.38;;;19.50;48.50;;;;;;4911043;29;20235;-82
2022/01/02 12:58:37;;;;;;;19.92;2.10;;;19.40;48.50;;;;;;4888251;29;20192;-82
2022/01/02 13:01:30;;;;;;;19.52;2.20;;;19.40;48.60;;;;;;4896784;29;20202;-82
2022/01/02 13:04:53;;;;;;;21.83;2.40;;;19.40;48.70;;;;;;4893766;29;20808;-82
2022/01/02 13:07:12;;;;;;;13.82;2.00;;;19.50;48.70;;;;;;4929640;29;20182;-83
2022/01/02 13:09:49;;;;;;;13.38;2.42;;;19.40;48.80;;;;;;4942097;29;20246;-82
2022/01/02 13:12:18;;;;;;;12.32;2.15;;;19.40;48.80;;;;;;4925343;29;20248;-83
2022/01/02 13:15:03;;;;;;;20.50;2.30;;;19.50;49.10;;;;;;4892484;29;20212;-84
2022/01/02 13:17:39;;;;;;;14.43;2.65;;;19.40;49.10;;;;;;4933262;29;20182;-83
2022/01/02 13:20:24;;;;;;;17.35;2.35;;;19.40;49.20;;;;;;4952576;29;20186;-84
2022/01/02 13:22:59;;;;;;;19.98;2.25;;;19.50;49.10;;;;;;4978221;28;20287;-85
2022/01/02 13:25:33;;;;;;;16.30;1.90;;;19.50;49.30;;;;;;4966491;28;20239;-83
2022/01/02 13:28:11;;;;;;;14.43;2.83;;;19.40;49.10;;;;;;5012946;28;20190;-84
2022/01/02 13:30:53;;;;;;;17.13;2.53;;;19.50;49.40;;;;;;5018463;28;20243;-81
2022/01/02 13:33:31;;;;;;;18.30;2.50;;;19.60;49.30;;;;;;4979449;28;20192;-81
2022/01/02 13:36:20;;;;;;;12.07;2.08;;;19.50;49.10;;;;;;4940029;29;20262;-81
2022/01/02 13:38:52;;;;;;;15.55;2.38;;;19.50;49.60;;;;;;4904182;29;20243;-84
2022/01/02 13:41:21;;;;;;;14.55;1.92;;;19.60;49.90;;;;;;4872868;29;20206;-83
2022/01/02 13:43:52;;;;;;;13.63;2.22;;;19.60;49.40;;;;;;4918857;29;20182;-82
2022/01/02 13:46:27;;;;;;;10.10;2.30;;;19.60;49.40;;;;;;4938918;29;20667;-81
2022/01/02 13:49:03;;;;;;;16.35;2.25;;;19.60;49.20;;;;;;4911288;29;20201;-82
2022/01/02 13:51:35;;;;;;;18.75;2.42;;;19.60;49.40;;;;;;4924268;29;20205;-83
2022/01/02 13:54:15;;;;;;;16.70;2.83;;;19.50;49.20;;;;;;4924833;29;20277;-83
2022/01/02 13:56:57;;;;;;;21.63;3.00;;;19.50;49.20;;;;;;4909315;29;20253;-82
2022/01/02 13:59:25;;;;;;;13.38;2.30;;;19.50;49.40;;;;;;4911625;29;20308;-83
2022/01/02 14:01:53;;;;;;;9.63;2.05;;;19.50;50.00;;;;;;4883616;29;20329;-82
2022/01/02 14:04:27;;;;;;;16.30;2.45;;;19.50;49.50;;;;;;4895173;29;20217;-84
2022/01/02 14:07:09;;;;;;;12.20;2.00;;;19.50;49.40;;;;;;4941824;29;20238;-83
2022/01/02 14:09:51;;;;;;;11.52;1.80;;;19.50;49.40;;;;;;4959080;28;20181;-82
2022/01/02 14:12:27;;;;;;;15.00;2.17;;;19.60;48.60;;;;;;4947567;29;20186;-82